首页
METAR-TAF:

METAR-TAF

机场 :

Nebraska City Municipal Airport

Nebraska City, 內布拉斯加州, 美国

纬度: 40-36N, 经度: 095-51W, 海拔: 354米

当前天气观测

该预报发布于34分钟前的10:15 UTC
风速7节,风向
温度 17°C
湿度 100%
气压 1011 hPa
能見度: 4.8公里
阴天层高于500英尺

METAR: KAFK 261015Z AUTO 36007KT 3SM RA OVC005 17/17 A2984 RMK AO2 P0002 T01660166

时间: 05:49 (10:49 UTC)


TAF: 丢失

超过4000个机场的气象观测和天气预报(METAR&TAF报告)。

可查询的气象台以黄色和红色小点在地图上表示。

将鼠标移到小点上方,可查看气象台名称。

然后点击查看天气观测和预报。

如需切换地图:点击带黑十字的绿色按钮放大地图;点击带横线的绿色按钮缩小地图;或者点击绿色箭头查看邻近地区的地图。


METAR-TAF: